Ernest A. Love Field
KPRC : rendu visible

Aérodrome :











RETROUVEZ-NOUS SUR...

 
LOGIN :

S'inscrire | Disclaimer

   EN    FR    IT 

 









Légende :    VFR   VFR Marginal   IFR   IFR Intensif   IFR Très Intensif
Visi : 
Plafond : 
>= 8 km
>= 3000ft
5 à 8 km
1000 à 3000 ft
1500m à 5 km
500 à 1000 ft
800 à 1500m
200 à 500 ft
< 800m
< 200 ft
Symboles :   Orages  Brouillard  Fortes neiges  Fortes précipitations  Vent > 20 kt






- Altitude de l'aérodrome : 5045 ft
- Code IATA : PRC


KPRC - Ernest A. Love Field

DERNIER METAR :
  • 312053Z 19018G27KT 10SM CLR 30/03 A3007 RMK AO2 PK WND 20027/2052 SLP088 T03000028 58005

METARs EXPIRÉS :
  • 311953Z 20012G22KT 10SM CLR 31/04 A3008 RMK AO2 PK WND 18027/1923 SLP087 T03060039
  • 311853Z 19013G23KT 10SM CLR 31/07 A3009 RMK AO2 PK WND 14026/1813 SLP091 T03060067
  • 311753Z 14017G22KT 10SM CLR 28/06 A3009 RMK AO2 SLP094 T02830061 10294 20200 50000

TAF KPRC
Valide du 31 à 18h jusqu'au 01 à 18h UTC


311738Z 3118/0118 19015G25KT P6SM SCT250
FM010200 VRB06KT P6SM FEW250
FIR KZAB / Amérique du Nord



MET'MAP, la Météo Aéronautique d'un coup d'oeil ! - Copyright ORBIFLY Décembre 2007 - Disclaimer

ORBIFLY MET'MAP TEAM :

Programmation & Développement : Alexandra Zaïnal
Sur une idée originale de : Baudouin d'Aumeries
Assistance à la programmation : Marc-Olivier Méhu
Soutien technique & logistique : Manuel Goepfert

Contact : metmap@orbifly.com




SOURCES & CREDITS :

   NOAA       Earth
Advisory